METAR - Iceland

Last updated 22.09.2020 - at. 15:29

SIGMET for the last six hours

No SIGMET messages last 6 hours.

METAR from the last three hours

AerodromeTimeMessage
BIAR2020-09-22 15.00METAR BIAR 221500Z 30006KT 9999 SCT055 07/M03 Q0994
BIAR2020-09-22 14.00METAR BIAR 221400Z VRB02KT 9999 SCT055 07/M03 Q0994
BIAR2020-09-22 13.00METAR BIAR 221300Z 13004KT 090V180 9999 SCT055 07/M04 Q0994
BIBD2020-09-22 15.00METAR BIBD 221500Z 02009KT 9999 FEW020 BKN035 05/M01 Q0993
BIBD2020-09-22 14.00METAR BIBD 221400Z 02011KT 9999 FEW020 SCT035 05/M00 Q0993
BIBD2020-09-22 13.00METAR BIBD 221300Z 01004KT 9999 FEW020 SCT035 05/M01 Q0993
BIEG2020-09-22 15.00METAR BIEG 221500Z 00000KT 9999 FEW045 08/M09 Q0994
BIEG2020-09-22 14.00METAR BIEG 221400Z 00000KT 9999 FEW045 08/M07 Q0994
BIEG2020-09-22 13.00METAR BIEG 221300Z 24002KT 9999 FEW042 08/M06 Q0995
BIGR2020-09-22 15.00METAR BIGR 221500Z 05019KT 9999 BKN007 BKN074 03/01 Q0996
BIGR2020-09-22 14.00METAR BIGR 221400Z 07011KT 9999 BKN007 04/01 Q0996
BIGR2020-09-22 12.50METAR BIGR 221250Z 06013KT 9999 FEW011 BKN054 03/01 Q0996
BIHU2020-09-22 15.00METAR BIHU 221500Z 35008KT 9999 FEW070 07/M00 Q0994
BIHU2020-09-22 13.00METAR BIHU 221300Z 35007KT 9999 FEW070 06/M02 Q0994
BIIS2020-09-22 15.00METAR BIIS 221500Z 01008G18KT 9999 VCSH SCT015 OVC022 04/01 Q0994
BIIS2020-09-22 14.00METAR BIIS 221400Z VRB05KT 9999 VCSH SCT015 OVC022 03/01 Q0994
BIIS2020-09-22 13.00METAR BIIS 221300Z VRB08KT 9999 SCT015 BKN022 03/01 Q0994
BIKF2020-09-22 15.00METAR BIKF 221500Z 33008KT 9999 FEW015TCU BKN022 06/01 Q0992
BIKF2020-09-22 14.30METAR BIKF 221430Z 33008KT 9999 SCT020TCU 06/01 Q0992
BIKF2020-09-22 14.00METAR BIKF 221400Z 33007KT 300V360 9999 SCT022TCU 06/01 Q0992
BIKF2020-09-22 13.30METAR BIKF 221330Z 32010KT 9999 FEW021 SCT029TCU 06/02 Q0992
BIKF2020-09-22 13.00METAR BIKF 221300Z 31011KT 9999 BKN022TCU 06/03 Q0992
BIKF2020-09-22 12.30METAR BIKF 221230Z 30006KT 9999 FEW023 SCT034CB 05/01 Q0992
BIRK2020-09-22 15.00METAR BIRK 221500Z 08010KT 9999 FEW014CB SCT025 05/02 Q0992
BIRK2020-09-22 14.00METAR BIRK 221400Z 08008KT 040V100 9999 VCSH SCT021CB 05/01 Q0992
BIRK2020-09-22 13.00METAR BIRK 221300Z 15005KT 110V190 9999 VCSH FEW020 SCT025CB 06/01 Q0992
BIVM2020-09-22 15.00METAR BIVM 221500Z 24015KT 9999 SCT022 07/02 Q0993
BIVM2020-09-22 14.00METAR BIVM 221400Z 20015KT 9999 FEW019 SCT028 05/02 Q0993
BIVM2020-09-22 13.00METAR BIVM 221300Z 22015KT 9999 FEW041 BKN060 07/M02 Q0993





Other related web sites


This website is built with Eplica CMS